createdAt,value
2019-04-05T00:01:55.385Z,99.90
2019-04-05T00:04:26.029Z,99.90
2019-04-05T00:06:56.965Z,99.90
2019-04-05T00:09:27.666Z,99.90
2019-04-05T00:11:58.333Z,99.90
2019-04-05T00:14:29.064Z,99.90
2019-04-05T00:17:00.022Z,99.90
2019-04-05T00:19:31.040Z,99.90
2019-04-05T00:22:01.691Z,99.90
2019-04-05T00:24:33.309Z,99.90
2019-04-05T00:27:04.240Z,99.90
2019-04-05T00:29:34.910Z,99.90
2019-04-05T00:32:05.323Z,99.90
2019-04-05T00:34:36.355Z,99.90
2019-04-05T01:03:06.644Z,99.90
2019-04-05T01:05:38.564Z,99.90
2019-04-05T01:08:09.824Z,99.90
2019-04-05T01:10:40.507Z,99.90
2019-04-05T01:13:11.643Z,99.90
2019-04-05T01:15:42.606Z,99.90
2019-04-05T01:18:13.931Z,99.90
2019-04-05T01:20:49.375Z,99.90
2019-04-05T01:23:20.630Z,99.90
2019-04-05T01:25:52.947Z,99.90
2019-04-05T01:28:24.550Z,99.90
2019-04-05T01:30:55.513Z,99.90
2019-04-05T01:33:26.559Z,99.90
2019-04-05T01:35:57.336Z,99.90
2019-04-05T01:38:27.996Z,99.90
2019-04-05T01:41:00.641Z,99.90
2019-04-05T01:43:45.169Z,99.90
2019-04-05T01:46:15.962Z,99.90
2019-04-05T01:48:47.044Z,99.90
2019-04-05T01:51:17.970Z,99.90
2019-04-05T01:53:49.389Z,99.90
2019-04-05T01:56:20.410Z,99.90
2019-04-05T01:58:51.546Z,99.90
2019-04-05T02:01:23.372Z,99.90
2019-04-05T02:03:54.407Z,99.90
2019-04-05T02:06:25.715Z,99.90
2019-04-05T02:08:56.000Z,99.90
2019-04-05T02:11:28.034Z,99.90
2019-04-05T02:13:58.654Z,99.90
2019-04-05T02:16:30.098Z,99.90
2019-04-05T02:19:00.685Z,99.90
2019-04-05T02:21:31.100Z,99.90
2019-04-05T02:24:01.678Z,99.90
2019-04-05T02:26:32.629Z,99.90
2019-04-05T02:29:03.574Z,99.90
2019-04-05T02:31:34.642Z,99.90
2019-04-05T02:34:05.676Z,99.90
2019-04-05T02:36:36.591Z,99.90
2019-04-05T02:39:09.211Z,99.90
2019-04-05T02:41:41.339Z,99.90
2019-04-05T02:44:14.370Z,99.90
2019-04-05T02:46:50.375Z,99.90
2019-04-05T02:49:22.198Z,99.90
2019-04-05T02:51:54.427Z,99.90
2019-04-05T02:54:25.719Z,99.90
2019-04-05T02:56:56.591Z,99.90
2019-04-05T02:59:28.050Z,99.90
2019-04-05T03:02:09.623Z,99.90
2019-04-05T03:04:40.250Z,99.90
2019-04-05T03:07:11.315Z,99.90
2019-04-05T03:09:41.839Z,99.90
2019-04-05T03:12:12.155Z,99.90
2019-04-05T03:14:43.119Z,99.90
2019-04-05T03:17:38.730Z,99.90
2019-04-05T03:20:10.002Z,99.90
2019-04-05T03:22:40.923Z,99.90
2019-04-05T03:25:12.579Z,99.90
2019-04-05T03:27:43.580Z,99.90
2019-04-05T03:30:14.680Z,99.90
2019-04-05T03:32:46.517Z,99.90
2019-04-05T03:35:21.643Z,99.90
2019-04-05T03:37:52.934Z,99.90
2019-04-05T03:40:24.178Z,99.90
2019-04-05T03:42:55.662Z,99.90
2019-04-05T03:45:27.140Z,99.90
2019-04-05T03:47:58.191Z,99.90
2019-04-05T03:50:28.899Z,99.90
2019-04-05T03:52:59.863Z,99.90
2019-04-05T03:55:30.898Z,99.90
2019-04-05T03:58:01.536Z,99.90
2019-04-05T04:00:32.198Z,99.90
2019-04-05T04:03:03.002Z,99.90
2019-04-05T04:05:33.626Z,99.90
2019-04-05T04:08:04.462Z,99.90
2019-04-05T04:10:35.640Z,99.90
2019-04-05T04:13:06.446Z,99.90
2019-04-05T04:15:37.318Z,99.90
2019-04-05T04:18:08.407Z,99.90
2019-04-05T04:20:49.587Z,99.90
2019-04-05T04:23:22.260Z,99.90
2019-04-05T04:25:55.517Z,99.90
2019-04-05T04:28:27.648Z,99.90
2019-04-05T04:31:05.059Z,99.90
2019-04-05T04:33:36.578Z,99.90
2019-04-05T04:36:07.703Z,99.90
2019-04-05T04:38:38.848Z,99.90
2019-04-05T04:41:09.605Z,99.90
2019-04-05T04:43:40.655Z,99.90
2019-04-05T04:46:11.830Z,99.90
2019-04-05T04:48:43.769Z,99.90
2019-04-05T04:51:14.985Z,99.90
2019-04-05T04:53:47.283Z,99.90
2019-04-05T04:56:18.570Z,99.90
2019-04-05T04:58:49.897Z,99.90
2019-04-05T05:01:20.957Z,99.90
2019-04-05T05:03:51.951Z,99.90
2019-04-05T05:06:24.330Z,99.90
2019-04-05T05:08:55.733Z,99.90
2019-04-05T05:11:34.737Z,99.90
2019-04-05T05:14:06.562Z,99.90
2019-04-05T05:16:37.360Z,99.90
2019-04-05T05:19:09.279Z,99.90
2019-04-05T05:21:40.689Z,99.90
2019-04-05T05:24:12.291Z,99.90
2019-04-05T05:26:43.236Z,99.90
2019-04-05T05:29:14.550Z,99.90
2019-04-05T05:32:01.949Z,99.90
2019-04-05T05:34:32.891Z,99.90
2019-04-05T05:37:04.182Z,99.90
2019-04-05T05:39:34.510Z,99.90
2019-04-05T05:42:05.206Z,99.90
2019-04-05T05:44:36.031Z,99.90
2019-04-05T05:47:06.610Z,99.90
2019-04-05T05:49:37.624Z,99.90
2019-04-05T05:52:08.226Z,99.90
2019-04-05T05:54:38.578Z,99.90
2019-04-05T05:57:09.612Z,99.90
2019-04-05T05:59:40.341Z,99.90
2019-04-05T06:02:11.620Z,99.90
2019-04-05T06:04:43.033Z,99.90
2019-04-05T06:07:13.757Z,99.90
2019-04-05T06:09:47.592Z,99.90
2019-04-05T06:12:17.185Z,99.90
2019-04-05T06:14:53.591Z,99.90
2019-04-05T06:17:27.032Z,99.90
2019-04-05T06:19:57.976Z,99.90
2019-04-05T06:22:29.435Z,99.90
2019-04-05T06:25:01.178Z,99.90
2019-04-05T06:27:35.321Z,99.90
2019-04-05T06:30:06.111Z,99.90
2019-04-05T06:32:37.073Z,99.90
2019-04-05T06:35:09.038Z,99.90
2019-04-05T06:37:39.787Z,99.90
2019-04-05T06:40:10.463Z,99.90
2019-04-05T06:42:41.435Z,99.90
2019-04-05T06:45:13.057Z,99.90
2019-04-05T06:47:44.033Z,99.90
2019-04-05T06:50:14.662Z,99.90
2019-04-05T06:52:47.033Z,99.90
2019-04-05T06:55:17.350Z,99.90
2019-04-05T06:58:00.582Z,99.90
2019-04-05T07:00:32.298Z,99.90
2019-04-05T07:03:03.386Z,99.90
2019-04-05T07:05:34.321Z,99.90
2019-04-05T07:08:05.052Z,99.90
2019-04-05T07:10:36.475Z,99.90
2019-04-05T07:13:08.605Z,99.90
2019-04-05T07:15:42.888Z,99.90
2019-04-05T07:18:14.534Z,99.90
2019-04-05T07:20:45.881Z,99.90
2019-04-05T07:23:21.357Z,99.90
2019-04-05T07:25:51.655Z,99.90
2019-04-05T07:28:24.997Z,99.90
2019-04-05T07:30:54.569Z,99.90
2019-04-05T07:33:24.939Z,99.90
2019-04-05T07:35:55.490Z,99.90
2019-04-05T07:38:27.452Z,99.90
2019-04-05T07:41:01.725Z,99.90
2019-04-05T07:43:33.034Z,99.90
2019-04-05T07:46:31.042Z,99.90
2019-04-05T07:49:01.749Z,99.90
2019-04-05T07:51:34.236Z,99.90
2019-04-05T07:54:11.050Z,99.90
2019-04-05T07:56:42.013Z,99.90
2019-04-05T07:59:14.079Z,99.90
2019-04-05T08:01:44.724Z,99.90
2019-04-05T08:04:15.191Z,99.90
2019-04-05T08:06:48.834Z,99.90
2019-04-05T08:09:21.825Z,99.90
2019-04-05T08:11:55.016Z,99.90
2019-04-05T08:14:27.340Z,99.90
2019-04-05T08:16:58.325Z,99.90
2019-04-05T08:19:29.671Z,99.90
2019-04-05T08:22:00.650Z,99.90
2019-04-05T08:24:31.655Z,99.90
2019-04-05T08:27:02.375Z,99.90
2019-04-05T08:29:33.334Z,99.90
2019-04-05T08:32:14.590Z,99.90
2019-04-05T08:34:38.656Z,99.90
2019-04-05T08:37:09.605Z,99.90
2019-04-05T08:39:40.881Z,99.90
2019-04-05T08:42:11.706Z,99.90
2019-04-05T08:44:42.917Z,99.90
2019-04-05T08:47:13.594Z,99.90
2019-04-05T08:49:44.516Z,99.90
2019-04-05T08:52:16.890Z,99.90
2019-04-05T08:54:52.873Z,99.90
2019-04-05T08:57:24.088Z,99.90
2019-04-05T08:59:54.432Z,99.90
2019-04-05T09:02:25.159Z,99.90
2019-04-05T09:04:56.101Z,99.90
2019-04-05T09:07:27.909Z,99.90
2019-04-05T09:10:07.067Z,99.90
2019-04-05T09:12:38.039Z,99.90
2019-04-05T09:15:08.872Z,99.90
2019-04-05T09:17:39.456Z,99.90
2019-04-05T09:20:10.133Z,99.70
2019-04-05T09:22:41.052Z,98.60
2019-04-05T09:25:22.881Z,96.90
2019-04-05T09:27:53.913Z,94.60
2019-04-05T09:30:24.547Z,93.60
2019-04-05T09:32:56.189Z,92.30
2019-04-05T09:38:18.361Z,88.90
2019-04-05T09:40:49.405Z,89.40
2019-04-05T09:43:20.479Z,88.20
2019-04-05T09:45:51.166Z,88.90
2019-04-05T09:48:21.471Z,84.70
2019-04-05T09:51:02.441Z,85.10
2019-04-05T09:53:33.685Z,88.10
2019-04-05T09:56:04.770Z,87.40
2019-04-05T09:58:35.693Z,81.20
2019-04-05T10:01:06.725Z,80.00
2019-04-05T10:03:38.464Z,76.80
2019-04-05T10:06:09.978Z,76.30
2019-04-05T10:08:41.390Z,72.40
2019-04-05T10:11:12.428Z,74.70
2019-04-05T10:13:43.588Z,72.40
2019-04-05T10:16:14.304Z,66.90
2019-04-05T10:18:44.934Z,69.10
2019-04-05T10:21:16.089Z,63.80
2019-04-05T10:23:47.344Z,63.70
2019-04-05T10:26:18.262Z,61.70
2019-04-05T10:28:49.956Z,66.10
2019-04-05T10:31:21.058Z,65.10
2019-04-05T10:33:52.326Z,66.70
2019-04-05T10:36:27.439Z,69.40
2019-04-05T10:38:58.480Z,72.30
2019-04-05T10:41:28.813Z,73.80
2019-04-05T10:44:00.138Z,73.10
2019-04-05T10:46:31.498Z,72.40
2019-04-05T10:49:02.775Z,70.60
2019-04-05T10:51:34.104Z,64.00
2019-04-05T10:54:04.750Z,64.40
2019-04-05T10:56:36.066Z,65.00
2019-04-05T10:59:14.293Z,62.00
2019-04-05T11:01:45.230Z,58.80
2019-04-05T11:04:16.897Z,60.60
2019-04-05T11:06:47.924Z,60.10
2019-04-05T11:09:18.535Z,61.20
2019-04-05T11:11:49.195Z,65.90
2019-04-05T11:14:20.150Z,64.50
2019-04-05T11:16:58.232Z,67.60
2019-04-05T11:19:24.865Z,65.00
2019-04-05T11:21:56.321Z,60.30
2019-04-05T11:24:27.225Z,58.00
2019-04-05T11:26:58.334Z,59.40
2019-04-05T11:29:29.993Z,55.70
2019-04-05T11:32:00.733Z,56.30
2019-04-05T11:34:32.461Z,55.90
2019-04-05T11:37:03.484Z,56.40
2019-04-05T11:39:34.894Z,52.20
2019-04-05T11:42:06.559Z,52.30
2019-04-05T11:44:37.932Z,56.60
2019-04-05T11:47:08.540Z,57.90
2019-04-05T11:49:41.720Z,55.00
2019-04-05T11:52:12.945Z,53.10
2019-04-05T11:54:45.962Z,52.60
2019-04-05T11:57:16.112Z,57.50
2019-04-05T11:59:48.545Z,57.00
2019-04-05T12:02:39.380Z,58.50
2019-04-05T12:05:11.247Z,61.40
2019-04-05T12:07:41.995Z,64.20
2019-04-05T12:10:13.366Z,67.10
2019-04-05T12:12:44.373Z,66.50
2019-04-05T12:15:15.325Z,65.60
2019-04-05T12:17:46.062Z,62.10
2019-04-05T12:20:17.605Z,62.00
2019-04-05T12:22:53.730Z,64.40
2019-04-05T12:25:25.207Z,65.40
2019-04-05T12:28:06.310Z,66.10
2019-04-05T12:30:29.963Z,67.60
2019-04-05T12:33:13.218Z,68.50
2019-04-05T12:35:37.551Z,70.80
2019-04-05T12:38:07.386Z,68.60
2019-04-05T12:40:40.780Z,66.50
2019-04-05T12:43:13.623Z,67.00
2019-04-05T12:45:44.695Z,66.00
2019-04-05T12:48:16.706Z,64.60
2019-04-05T12:51:00.305Z,63.10
2019-04-05T12:53:21.278Z,56.30
2019-04-05T12:55:56.141Z,55.90
2019-04-05T12:58:25.984Z,56.60
2019-04-05T13:00:57.714Z,57.00
2019-04-05T13:03:33.995Z,56.60
2019-04-05T13:06:05.472Z,56.80
2019-04-05T13:08:36.633Z,57.50
2019-04-05T13:11:08.156Z,57.70
2019-04-05T13:13:39.826Z,56.70
2019-04-05T13:16:10.955Z,58.40
2019-04-05T13:18:42.455Z,53.70
2019-04-05T13:21:15.535Z,53.00
2019-04-05T13:23:47.514Z,54.80
2019-04-05T13:26:18.576Z,54.30
2019-04-05T13:28:50.087Z,53.40
2019-04-05T13:31:21.696Z,54.90
2019-04-05T13:33:57.325Z,56.80
2019-04-05T13:36:27.953Z,58.60
2019-04-05T13:39:00.397Z,58.80
2019-04-05T13:41:32.480Z,55.70
2019-04-05T13:44:03.931Z,56.80
2019-04-05T13:46:38.334Z,57.70
2019-04-05T13:49:10.492Z,58.60
2019-04-05T13:51:42.705Z,58.50
2019-04-05T13:54:14.441Z,59.90
2019-04-05T13:56:45.497Z,60.10
2019-04-05T13:59:16.812Z,61.10
2019-04-05T14:01:50.894Z,60.30
2019-04-05T14:04:22.031Z,60.10
2019-04-05T14:06:53.608Z,60.30
2019-04-05T14:09:25.485Z,60.70
2019-04-05T14:11:56.914Z,59.40
2019-04-05T14:14:28.619Z,58.50
2019-04-05T14:17:00.813Z,52.60
2019-04-05T14:19:31.508Z,50.50
2019-04-05T14:22:08.677Z,48.50
2019-04-05T14:24:37.424Z,47.10
2019-04-05T14:29:28.519Z,44.30
2019-04-05T14:32:19.049Z,46.00
2019-04-05T14:34:34.559Z,50.30
2019-04-05T14:37:25.192Z,53.70
2019-04-05T14:39:55.986Z,56.70
2019-04-05T14:42:29.543Z,57.90
2019-04-05T14:45:00.124Z,58.30
2019-04-05T14:47:31.091Z,58.90
2019-04-05T14:50:02.556Z,58.80
2019-04-05T14:52:33.908Z,60.80
2019-04-05T14:55:05.352Z,61.70
2019-04-05T14:57:36.643Z,61.40
2019-04-05T15:00:10.526Z,61.00
2019-04-05T15:02:44.005Z,61.10
2019-04-05T15:05:16.410Z,62.20
2019-04-05T15:07:50.657Z,61.90
2019-04-05T15:10:20.238Z,60.80
2019-04-05T15:12:50.958Z,59.90
2019-04-05T15:15:21.984Z,60.60
2019-04-05T15:17:53.055Z,59.40
2019-04-05T15:20:24.250Z,59.40
2019-04-05T15:22:55.898Z,61.50
2019-04-05T15:25:27.267Z,62.10
2019-04-05T15:27:58.666Z,61.70
2019-04-05T15:30:29.342Z,59.10
2019-04-05T15:33:02.938Z,59.50
2019-04-05T15:35:34.306Z,59.60
2019-04-05T15:38:05.577Z,60.70
2019-04-05T15:40:36.663Z,60.40
2019-04-05T15:43:07.930Z,60.10
2019-04-05T15:45:42.561Z,59.80
2019-04-05T15:48:13.700Z,61.40
2019-04-05T15:50:45.588Z,60.80
2019-04-05T15:53:17.035Z,59.90
2019-04-05T15:55:49.276Z,58.00
2019-04-05T15:58:20.412Z,57.40
2019-04-05T16:00:51.348Z,60.40
2019-04-05T16:03:26.584Z,61.70
2019-04-05T16:05:57.956Z,61.90
2019-04-05T16:08:30.164Z,62.80
2019-04-05T16:11:00.986Z,64.00
2019-04-05T16:13:32.326Z,64.30
2019-04-05T16:16:03.350Z,64.40
2019-04-05T16:18:34.949Z,65.30
2019-04-05T16:21:05.914Z,64.60
2019-04-05T16:23:51.784Z,64.20
2019-04-05T16:26:23.792Z,64.00
2019-04-05T16:28:55.324Z,64.30
2019-04-05T16:31:46.031Z,64.80
2019-04-05T16:34:17.370Z,66.30
2019-04-05T16:36:48.382Z,67.10
2019-04-05T16:39:20.654Z,65.80
2019-04-05T16:41:58.686Z,66.50
2019-04-05T16:44:29.623Z,65.80
2019-04-05T16:47:00.273Z,65.70
2019-04-05T16:49:31.396Z,64.90
2019-04-05T16:52:02.878Z,66.90
2019-04-05T16:54:34.197Z,68.00
2019-04-05T16:57:05.177Z,69.40
2019-04-05T16:59:36.152Z,70.70
2019-04-05T17:02:07.784Z,69.40
2019-04-05T17:04:40.226Z,69.90
2019-04-05T17:07:11.235Z,71.90
2019-04-05T17:09:48.658Z,71.90
2019-04-05T17:12:19.677Z,70.80
2019-04-05T17:14:50.664Z,71.10
2019-04-05T17:17:21.394Z,71.30
2019-04-05T17:19:53.357Z,72.50
2019-04-05T17:22:24.351Z,72.30
2019-04-05T17:24:55.682Z,71.90
2019-04-05T17:27:26.666Z,70.90
2019-04-05T17:29:57.265Z,72.10
2019-04-05T17:32:27.614Z,72.70
2019-04-05T17:35:11.325Z,72.20
2019-04-05T17:37:42.368Z,73.70
2019-04-05T17:40:13.027Z,73.50
2019-04-05T17:42:43.366Z,74.30
2019-04-05T17:45:14.138Z,72.50
2019-04-05T17:47:45.091Z,70.30
2019-04-05T17:50:29.439Z,71.20
2019-04-05T17:53:12.288Z,72.00
2019-04-05T17:55:34.498Z,71.90
2019-04-05T17:58:07.750Z,71.70
2019-04-05T18:00:38.713Z,71.90
2019-04-05T18:03:09.691Z,72.30
2019-04-05T18:05:39.976Z,72.90
2019-04-05T18:08:10.617Z,74.00
2019-04-05T18:10:41.668Z,74.60
2019-04-05T18:13:12.685Z,75.10
2019-04-05T18:15:52.287Z,75.10
2019-04-05T18:18:16.715Z,75.90
2019-04-05T18:20:47.655Z,76.10
2019-04-05T18:23:24.771Z,75.90
2019-04-05T18:25:51.646Z,76.00
2019-04-05T18:28:22.944Z,75.80
2019-04-05T18:30:53.864Z,75.50
2019-04-05T18:33:24.519Z,75.70
2019-04-05T18:35:58.420Z,75.60
2019-04-05T18:38:28.735Z,75.90
2019-04-05T18:41:01.944Z,76.30
2019-04-05T18:43:32.623Z,76.20
2019-04-05T18:46:03.216Z,77.30
2019-04-05T18:48:34.323Z,77.60
2019-04-05T18:51:04.986Z,81.50
2019-04-05T18:53:37.998Z,80.50
2019-04-05T18:56:09.875Z,78.70
2019-04-05T18:58:59.473Z,80.80
2019-04-05T19:01:30.143Z,80.40
2019-04-05T19:04:15.502Z,80.50
2019-04-05T19:06:47.164Z,83.20
2019-04-05T19:09:20.742Z,84.50
2019-04-05T19:11:51.530Z,86.50
2019-04-05T19:14:22.217Z,87.50
2019-04-05T19:16:53.453Z,88.30
2019-04-05T19:19:25.539Z,90.00
2019-04-05T19:21:56.512Z,90.30
2019-04-05T19:24:27.766Z,91.20
2019-04-05T19:26:58.750Z,92.70
2019-04-05T19:29:30.022Z,94.90
2019-04-05T19:50:09.296Z,99.90
2019-04-05T19:52:40.284Z,99.90
2019-04-05T19:55:12.530Z,99.90
2019-04-05T19:57:43.625Z,99.90
2019-04-05T20:00:15.246Z,99.90
2019-04-05T20:02:47.017Z,99.90
2019-04-05T20:05:17.748Z,99.90
2019-04-05T20:07:48.745Z,99.90
2019-04-05T20:10:19.744Z,99.90
2019-04-05T20:12:50.796Z,99.90
2019-04-05T20:15:21.163Z,99.90
2019-04-05T20:17:52.815Z,99.90
2019-04-05T20:20:24.112Z,99.90
2019-04-05T20:22:55.676Z,99.90
2019-04-05T20:25:27.908Z,99.90
2019-04-05T20:27:59.404Z,99.90
2019-04-05T20:30:31.853Z,99.90
2019-04-05T20:33:03.468Z,99.90
2019-04-05T20:35:34.540Z,99.90
2019-04-05T20:38:05.499Z,99.90
2019-04-05T20:40:36.863Z,99.90
2019-04-05T20:43:08.281Z,99.90
2019-04-05T20:45:39.889Z,99.90
2019-04-05T20:48:18.072Z,99.90
2019-04-05T20:50:50.653Z,99.90
2019-04-05T20:53:24.748Z,99.90
2019-04-05T20:56:03.523Z,99.90
2019-04-05T20:58:35.178Z,99.90
2019-04-05T21:01:05.472Z,99.90
2019-04-05T21:03:36.725Z,99.90
2019-04-05T21:06:10.235Z,99.90
2019-04-05T21:08:46.342Z,99.90
2019-04-05T21:11:17.163Z,99.90
2019-04-05T21:13:48.517Z,99.90
2019-04-05T21:16:19.586Z,99.90
2019-04-05T21:18:51.004Z,99.90
2019-04-05T21:21:38.945Z,99.90
2019-04-05T21:24:09.680Z,99.90
2019-04-05T21:26:41.369Z,99.90
2019-04-05T21:29:12.504Z,99.90
2019-04-05T21:31:43.546Z,99.90
2019-04-05T21:34:14.913Z,99.90
2019-04-05T21:36:47.759Z,99.90
2019-04-05T21:39:18.389Z,99.90
2019-04-05T21:41:49.237Z,99.90
2019-04-05T21:44:20.273Z,99.90
2019-04-05T21:46:51.943Z,99.90
2019-04-05T21:49:23.069Z,99.90
2019-04-05T21:51:53.693Z,99.90
2019-04-05T21:54:24.616Z,99.90
2019-04-05T21:56:56.059Z,99.90
2019-04-05T21:59:27.254Z,99.90
2019-04-05T22:01:58.519Z,99.90
2019-04-05T22:04:30.335Z,99.90
2019-04-05T22:07:02.095Z,99.90
2019-04-05T22:09:33.796Z,99.90
2019-04-05T22:12:07.961Z,99.90
2019-04-05T22:14:38.699Z,99.90
2019-04-05T22:17:09.637Z,99.90
2019-04-05T22:19:50.702Z,99.90
2019-04-05T22:22:22.423Z,99.90
2019-04-05T22:24:59.417Z,99.90
2019-04-05T22:27:28.593Z,99.90
2019-04-05T22:29:59.577Z,99.90
2019-04-05T22:32:30.514Z,99.90
2019-04-05T22:35:01.202Z,99.90
2019-04-05T22:37:33.005Z,99.90
2019-04-05T22:40:03.736Z,99.90
2019-04-05T22:42:34.707Z,99.90
2019-04-05T22:45:06.783Z,99.90
2019-04-05T22:47:37.800Z,99.90
2019-04-05T22:50:18.005Z,99.90
2019-04-05T22:52:49.360Z,99.90
2019-04-05T22:55:20.973Z,99.90
2019-04-05T22:57:51.287Z,99.90
2019-04-05T23:00:22.611Z,99.90
2019-04-05T23:02:53.675Z,99.90
2019-04-05T23:05:24.298Z,99.90
2019-04-05T23:07:55.828Z,99.90
2019-04-05T23:10:27.192Z,99.90
2019-04-05T23:12:58.233Z,99.90
2019-04-05T23:15:29.286Z,99.90
2019-04-05T23:18:00.641Z,99.90
2019-04-05T23:20:31.690Z,99.90
2019-04-05T23:23:03.045Z,99.90
2019-04-05T23:25:33.761Z,99.90
2019-04-05T23:28:04.494Z,99.90
2019-04-05T23:30:34.848Z,99.90
2019-04-05T23:33:05.841Z,99.90
2019-04-05T23:35:36.452Z,99.90
2019-04-05T23:38:07.186Z,99.90
2019-04-05T23:40:38.631Z,99.90
2019-04-05T23:43:09.594Z,99.90
2019-04-05T23:45:40.958Z,99.90
2019-04-05T23:48:11.527Z,99.90
2019-04-05T23:50:42.522Z,99.90
2019-04-05T23:53:14.047Z,99.90
2019-04-05T23:55:45.044Z,99.90
2019-04-05T23:58:15.634Z,99.90
